createdAt,value
2022-10-23T00:02:21.862Z,97963.91
2022-10-23T00:04:54.472Z,97957.86
2022-10-23T00:07:25.588Z,97958.02
2022-10-23T00:09:56.714Z,97957.67
2022-10-23T00:12:28.239Z,97963.16
2022-10-23T00:14:59.447Z,97962.61
2022-10-23T00:17:28.726Z,97965.54
2022-10-23T00:20:00.041Z,97963.36
2022-10-23T00:22:31.017Z,97962.13
2022-10-23T00:25:03.278Z,97961.98
2022-10-23T00:27:34.321Z,97966.99
2022-10-23T00:30:07.090Z,97969.75
2022-10-23T00:32:38.085Z,97972.21
2022-10-23T00:35:10.245Z,97970.17
2022-10-23T00:37:41.976Z,97966.02
2022-10-23T00:40:15.022Z,97968.04
2022-10-23T00:42:45.990Z,97972.38
2022-10-23T00:45:20.575Z,97974.77
2022-10-23T00:47:51.752Z,97975.10
2022-10-23T00:50:25.654Z,97975.31
2022-10-23T00:53:00.591Z,97969.52
2022-10-23T00:55:33.425Z,97971.29
2022-10-23T00:58:04.322Z,97968.58
2022-10-23T01:00:42.735Z,97975.04
2022-10-23T01:03:14.778Z,97978.96
2022-10-23T01:05:50.841Z,97980.84
2022-10-23T01:08:29.330Z,97981.84
2022-10-23T01:11:08.073Z,97975.89
2022-10-23T01:13:45.672Z,97977.69
2022-10-23T01:16:24.807Z,97984.83
2022-10-23T01:19:05.813Z,97983.73
2022-10-23T01:21:50.646Z,97983.89
2022-10-23T01:24:31.993Z,97987.23
2022-10-23T01:27:21.309Z,97989.83
2022-10-23T01:30:01.176Z,97988.39
2022-10-23T01:32:36.553Z,97989.77
2022-10-23T01:35:13.267Z,97985.08
2022-10-23T01:37:47.422Z,97983.27
2022-10-23T01:40:25.774Z,97977.55
2022-10-23T01:43:00.718Z,97975.38
2022-10-23T01:45:37.354Z,97970.41
2022-10-23T01:48:14.076Z,97971.05
2022-10-23T01:50:46.599Z,97967.43
2022-10-23T01:53:18.594Z,97966.90
2022-10-23T01:55:50.877Z,97961.98
2022-10-23T01:58:23.416Z,97963.11
2022-10-23T02:00:58.017Z,97961.48
2022-10-23T02:03:31.756Z,97958.52
2022-10-23T02:06:03.139Z,97959.55
2022-10-23T02:08:34.762Z,97960.11
2022-10-23T02:11:11.298Z,97952.95
2022-10-23T02:13:50.556Z,97954.30
2022-10-23T02:16:30.603Z,97958.02
2022-10-23T02:19:14.137Z,97958.17
2022-10-23T02:21:53.245Z,97965.59
2022-10-23T02:24:30.131Z,97964.34
2022-10-23T02:27:05.228Z,97963.64
2022-10-23T02:29:41.025Z,97964.42
2022-10-23T02:32:13.742Z,97970.71
2022-10-23T02:34:45.117Z,97970.65
2022-10-23T02:37:16.089Z,97970.05
2022-10-23T02:39:45.830Z,97973.33
2022-10-23T02:42:22.326Z,97973.02
2022-10-23T02:45:03.439Z,97972.20
2022-10-23T02:47:49.984Z,97968.91
2022-10-23T02:50:30.093Z,97968.81
2022-10-23T02:53:07.516Z,97970.02
2022-10-23T02:55:50.000Z,97967.58
2022-10-23T02:58:28.643Z,97966.31
2022-10-23T03:01:05.723Z,97964.02
2022-10-23T03:03:37.192Z,97957.06
2022-10-23T03:06:08.924Z,97957.40
2022-10-23T03:08:56.108Z,97954.65
2022-10-23T03:11:27.512Z,97952.05
2022-10-23T03:13:58.629Z,97950.63
2022-10-23T03:16:29.638Z,97948.95
2022-10-23T03:19:00.488Z,97949.02
2022-10-23T03:21:29.803Z,97948.02
2022-10-23T03:24:00.689Z,97939.85
2022-10-23T03:26:30.024Z,97930.16
2022-10-23T03:29:00.850Z,97931.08
2022-10-23T03:31:32.004Z,97935.15
2022-10-23T03:34:04.042Z,97943.27
2022-10-23T03:36:37.608Z,97943.19
2022-10-23T03:39:08.595Z,97938.42
2022-10-23T03:41:39.721Z,97941.75
2022-10-23T03:44:10.635Z,97943.35
2022-10-23T03:46:41.751Z,97950.31
2022-10-23T03:49:11.226Z,97952.72
2022-10-23T03:51:42.407Z,97957.14
2022-10-23T03:54:13.404Z,97957.04
2022-10-23T03:56:47.036Z,97951.05
2022-10-23T03:59:18.124Z,97948.85
2022-10-23T04:01:49.307Z,97954.36
2022-10-23T04:04:20.546Z,97956.58
2022-10-23T04:06:49.877Z,97963.83
2022-10-23T04:09:19.493Z,97965.10
2022-10-23T04:11:50.418Z,97963.50
2022-10-23T04:14:21.116Z,97966.84
2022-10-23T04:16:50.455Z,97963.55
2022-10-23T04:19:21.484Z,97961.79
2022-10-23T04:21:52.589Z,97962.14
2022-10-23T04:24:21.922Z,97957.35
2022-10-23T04:26:53.216Z,97951.86
2022-10-23T04:29:24.739Z,97947.98
2022-10-23T04:31:55.698Z,97954.21
2022-10-23T04:34:26.759Z,97957.23
2022-10-23T04:36:57.712Z,97955.18
2022-10-23T04:39:28.648Z,97950.68
2022-10-23T04:41:59.773Z,97956.61
2022-10-23T04:44:30.621Z,97958.59
2022-10-23T04:47:01.451Z,97959.39
2022-10-23T04:49:32.734Z,97962.55
2022-10-23T04:52:03.878Z,97959.91
2022-10-23T04:54:39.925Z,97960.34
2022-10-23T04:57:10.845Z,97955.19
2022-10-23T04:59:40.284Z,97956.48
2022-10-23T05:02:09.887Z,97953.54
2022-10-23T05:04:40.826Z,97952.48
2022-10-23T05:07:11.849Z,97952.91
2022-10-23T05:09:41.152Z,97950.36
2022-10-23T05:12:11.980Z,97949.27
2022-10-23T05:14:42.849Z,97955.64
2022-10-23T05:17:17.436Z,97953.23
2022-10-23T05:19:54.181Z,97951.27
2022-10-23T05:22:28.042Z,97946.90
2022-10-23T05:25:02.039Z,97956.90
2022-10-23T05:27:33.716Z,97962.77
2022-10-23T05:30:05.435Z,97961.27
2022-10-23T05:32:37.169Z,97960.63
2022-10-23T05:35:12.581Z,97966.30
2022-10-23T05:37:46.715Z,97962.75
2022-10-23T05:40:18.069Z,97969.11
2022-10-23T05:42:49.261Z,97971.21
2022-10-23T05:45:18.562Z,97971.95
2022-10-23T05:47:50.282Z,97969.98
2022-10-23T05:50:21.214Z,97972.96
2022-10-23T05:52:52.059Z,97968.70
2022-10-23T05:55:22.835Z,97967.86
2022-10-23T05:57:53.733Z,97964.86
2022-10-23T06:00:23.376Z,97963.98
2022-10-23T06:02:52.617Z,97960.11
2022-10-23T06:05:23.606Z,97962.38
2022-10-23T06:07:58.050Z,97970.63
2022-10-23T06:10:29.484Z,97975.25
2022-10-23T06:13:00.502Z,97976.93
2022-10-23T06:15:31.835Z,97973.70
2022-10-23T06:18:04.953Z,97972.55
2022-10-23T06:20:38.425Z,97968.83
2022-10-23T06:23:09.691Z,97972.54
2022-10-23T06:25:40.870Z,97982.06
2022-10-23T06:28:10.121Z,97984.75
2022-10-23T06:30:42.836Z,97987.20
2022-10-23T06:33:14.045Z,97990.80
2022-10-23T06:35:44.135Z,97988.48
2022-10-23T06:38:15.357Z,97984.27
2022-10-23T06:40:47.569Z,97990.45
2022-10-23T06:43:18.435Z,97994.77
2022-10-23T06:45:47.627Z,97995.62
2022-10-23T06:48:18.958Z,98004.02
2022-10-23T06:50:49.877Z,98002.92
2022-10-23T06:53:20.731Z,98002.48
2022-10-23T06:55:52.891Z,98000.94
2022-10-23T06:58:26.527Z,98001.83
2022-10-23T07:01:01.012Z,98007.42
2022-10-23T07:03:32.553Z,98004.97
2022-10-23T07:06:05.174Z,98005.15
2022-10-23T07:08:36.567Z,98004.73
2022-10-23T07:11:11.744Z,98004.27
2022-10-23T07:13:44.604Z,97999.00
2022-10-23T07:16:18.014Z,98003.27
2022-10-23T07:18:50.766Z,98005.31
2022-10-23T07:21:22.345Z,98004.86
2022-10-23T07:23:53.293Z,98004.93
2022-10-23T07:26:24.475Z,98003.10
2022-10-23T07:28:56.102Z,98006.79
2022-10-23T07:31:28.376Z,98004.80
2022-10-23T07:33:59.429Z,98001.48
2022-10-23T07:36:30.543Z,98004.98
2022-10-23T07:39:01.441Z,98008.39
2022-10-23T07:41:32.821Z,98017.84
2022-10-23T07:44:03.933Z,98026.92
2022-10-23T07:46:35.001Z,98031.31
2022-10-23T07:49:04.335Z,98034.78
2022-10-23T07:51:35.212Z,98026.41
2022-10-23T07:54:06.385Z,98029.61
2022-10-23T07:56:37.409Z,98036.20
2022-10-23T07:59:08.482Z,98040.17
2022-10-23T08:01:40.392Z,98032.98
2022-10-23T08:04:12.320Z,98018.82
2022-10-23T08:06:43.168Z,98023.83
2022-10-23T08:09:14.271Z,98028.64
2022-10-23T08:11:45.511Z,98029.77
2022-10-23T08:14:16.859Z,98021.75
2022-10-23T08:16:47.852Z,98019.34
2022-10-23T08:19:19.039Z,98017.42
2022-10-23T08:21:54.728Z,98014.42
2022-10-23T08:24:26.368Z,98005.02
2022-10-23T08:26:58.663Z,98015.85
2022-10-23T08:29:29.696Z,98021.69
2022-10-23T08:32:00.620Z,98017.73
2022-10-23T08:34:31.885Z,98017.88
2022-10-23T08:37:02.984Z,98019.95
2022-10-23T08:39:33.978Z,98018.13
2022-10-23T08:42:05.100Z,98021.30
2022-10-23T08:44:41.319Z,98020.66
2022-10-23T08:47:16.999Z,98013.48
2022-10-23T08:49:52.919Z,98016.02
2022-10-23T08:52:30.025Z,98023.39
2022-10-23T08:55:14.099Z,98024.09
2022-10-23T08:57:51.269Z,98031.00
2022-10-23T09:00:22.414Z,98038.93
2022-10-23T09:02:55.226Z,98042.42
2022-10-23T09:05:31.947Z,98049.02
2022-10-23T09:08:17.546Z,98051.48
2022-10-23T09:10:57.702Z,98045.84
2022-10-23T09:13:48.534Z,98040.73
2022-10-23T09:16:28.291Z,98039.64
2022-10-23T09:19:00.136Z,98033.52
2022-10-23T09:21:31.599Z,98031.16
2022-10-23T09:24:03.100Z,98027.88
2022-10-23T09:26:33.997Z,98020.40
2022-10-23T09:29:24.256Z,98015.95
2022-10-23T09:31:57.508Z,98018.78
2022-10-23T09:34:30.150Z,98015.41
2022-10-23T09:37:03.042Z,98012.00
2022-10-23T09:39:36.229Z,98010.13
2022-10-23T09:42:22.944Z,98014.93
2022-10-23T09:44:57.546Z,98010.95
2022-10-23T09:47:29.032Z,98011.21
2022-10-23T09:50:00.698Z,98011.45
2022-10-23T09:52:36.729Z,98012.09
2022-10-23T09:55:23.274Z,98014.04
2022-10-23T09:57:56.472Z,98017.86
2022-10-23T10:00:28.739Z,98013.79
2022-10-23T10:03:01.884Z,98014.64
2022-10-23T10:05:35.677Z,98016.02
2022-10-23T10:08:14.867Z,98011.65
2022-10-23T10:10:50.624Z,98009.49
2022-10-23T10:13:37.274Z,98008.55
2022-10-23T10:16:12.733Z,98009.91
2022-10-23T10:18:48.864Z,98006.16
2022-10-23T10:21:25.781Z,97996.91
2022-10-23T10:24:01.579Z,97991.57
2022-10-23T10:26:42.250Z,97994.80
2022-10-23T10:29:25.628Z,97991.29
2022-10-23T10:32:00.284Z,97987.01
2022-10-23T10:34:42.494Z,97982.98
2022-10-23T10:37:26.896Z,97982.64
2022-10-23T10:40:03.132Z,97983.77
2022-10-23T10:42:58.730Z,97986.61
2022-10-23T10:45:32.499Z,97987.27
2022-10-23T10:48:16.244Z,97985.86
2022-10-23T10:50:52.761Z,97990.98
2022-10-23T10:53:32.384Z,97995.73
2022-10-23T10:56:05.292Z,97993.56
2022-10-23T10:58:43.104Z,97987.68
2022-10-23T11:01:26.718Z,97981.10
2022-10-23T11:04:05.241Z,97976.67
2022-10-23T11:06:38.991Z,97968.64
2022-10-23T11:09:20.591Z,97958.44
2022-10-23T11:11:52.790Z,97958.39
2022-10-23T11:14:25.356Z,97961.90
2022-10-23T11:17:02.746Z,97964.59
2022-10-23T11:19:38.671Z,97956.56
2022-10-23T11:22:19.766Z,97952.16
2022-10-23T11:25:12.317Z,97946.14
2022-10-23T11:28:02.831Z,97945.10
2022-10-23T11:30:44.288Z,97935.41
2022-10-23T11:33:55.746Z,97930.81
2022-10-23T11:36:44.114Z,97921.66
2022-10-23T11:39:23.247Z,97915.45
2022-10-23T11:41:57.169Z,97909.80
2022-10-23T11:44:46.197Z,97907.49
2022-10-23T11:47:37.968Z,97908.52
2022-10-23T11:50:25.829Z,97905.32
2022-10-23T11:53:24.160Z,97902.56
2022-10-23T11:56:05.411Z,97899.02
2022-10-23T11:58:49.876Z,97898.27
2022-10-23T12:01:30.306Z,97900.27
2022-10-23T12:04:04.941Z,97895.02
2022-10-23T12:06:42.782Z,97887.15
2022-10-23T12:09:28.338Z,97878.36
2022-10-23T12:12:16.310Z,97867.84
2022-10-23T12:14:49.090Z,97858.92
2022-10-23T12:17:35.886Z,97863.02
2022-10-23T12:20:26.953Z,97864.53
2022-10-23T12:23:16.225Z,97857.19
2022-10-23T12:29:29.557Z,97853.34
2022-10-23T12:32:08.975Z,97848.88
2022-10-23T12:34:58.473Z,97850.45
2022-10-23T12:37:46.799Z,97850.13
2022-10-23T12:40:18.064Z,97843.58
2022-10-23T12:42:56.378Z,97839.56
2022-10-23T12:45:29.980Z,97841.92
2022-10-23T12:48:01.037Z,97841.69
2022-10-23T12:50:34.350Z,97837.21
2022-10-23T12:53:08.800Z,97832.31
2022-10-23T12:55:54.649Z,97827.20
2022-10-23T12:58:30.151Z,97819.52
2022-10-23T13:01:02.978Z,97812.80
2022-10-23T13:03:36.847Z,97813.98
2022-10-23T13:06:12.696Z,97811.81
2022-10-23T13:08:55.178Z,97810.27
2022-10-23T13:11:30.988Z,97808.13
